KELP/ELP METAR and TAF weather

Enter ICAO airport designator
Station Type Date Time Source
KELP METAR 2020/01/18 03:51 UTC NOAA

KELP 180351Z 27011G22KT 220V290 10SM CLR 16/M01 A3012 RMK AO2 PK WND 24027/0333 SLP168 T01611011


Station Type Date Time Source
KELP Decoded METAR 2020/01/18 03:51 UTC NOAA

EL PASO INTERNATIONAL AIRPORT , TX, United States (KELP) 31-49N 106-23W 1197M
Jan 17, 2020 - 10:51 PM EST / 2020.01.18 0351 UTC
Wind: from the W (270 degrees) at 13 MPH (11 KT) gusting to 25 MPH (22 KT) (direction variable):0
Visibility: 10 mile(s):0
Sky conditions: clear
Temperature: 61.0 F (16.1 C)
Dew Point: 30.0 F (-1.1 C)
Relative Humidity: 30%
Pressure (altimeter): 30.12 in. Hg (1019 hPa)
ob: KELP 180351Z 27011G22KT 220V290 10SM CLR 16/M01 A3012 RMK AO2 PK WND 24027/0333 SLP168 T01611011
cycle: 4

Station Type Date Time Source
KELP TAF 2020/01/17 18:30 UTC NOAA

TAF KELP 171728Z 1718/1818 22007KT P6SM FEW040 FEW250
FM172100 25011G20KT P6SM FEW250
FM180000 28009KT P6SM SKC
FM180600 35008KT P6SM SKC

Example: see airport list